createdAt,value
2022-07-29T00:02:15.716Z,20.49
2022-07-29T00:04:46.808Z,20.47
2022-07-29T00:07:24.438Z,20.49
2022-07-29T00:09:55.511Z,20.48
2022-07-29T00:12:26.764Z,20.41
2022-07-29T00:14:56.126Z,20.34
2022-07-29T00:17:26.862Z,20.33
2022-07-29T00:20:01.157Z,20.35
2022-07-29T00:22:32.435Z,20.32
2022-07-29T00:25:01.551Z,20.26
2022-07-29T00:27:28.470Z,20.36
2022-07-29T00:29:56.790Z,20.29
2022-07-29T00:32:23.991Z,20.32
2022-07-29T00:35:19.503Z,20.28
2022-07-29T00:37:52.499Z,20.22
2022-07-29T00:40:23.578Z,20.21
2022-07-29T00:42:54.170Z,20.22
2022-07-29T00:45:21.412Z,20.30
2022-07-29T00:47:55.972Z,20.27
2022-07-29T00:50:25.001Z,20.33
2022-07-29T00:52:55.907Z,20.31
2022-07-29T00:55:28.361Z,20.39
2022-07-29T00:57:58.229Z,20.38
2022-07-29T01:00:27.656Z,20.39
2022-07-29T01:02:56.088Z,20.38
2022-07-29T01:05:50.429Z,20.31
2022-07-29T01:08:17.299Z,20.20
2022-07-29T01:10:45.514Z,20.13
2022-07-29T01:13:20.136Z,20.10
2022-07-29T01:16:04.319Z,20.17
2022-07-29T01:18:37.343Z,20.18
2022-07-29T01:21:04.991Z,20.26
2022-07-29T01:24:04.785Z,20.11
2022-07-29T01:26:48.141Z,20.17
2022-07-29T01:29:21.946Z,20.23
2022-07-29T01:32:00.971Z,20.19
2022-07-29T01:34:48.839Z,20.22
2022-07-29T01:37:30.891Z,20.21
2022-07-29T01:40:01.653Z,20.23
2022-07-29T01:42:43.873Z,20.25
2022-07-29T01:45:18.159Z,20.19
2022-07-29T01:48:02.596Z,20.15
2022-07-29T01:50:38.524Z,20.10
2022-07-29T01:53:10.517Z,20.11
2022-07-29T01:55:41.681Z,20.10
2022-07-29T01:58:10.455Z,20.09
2022-07-29T02:00:40.709Z,20.07
2022-07-29T02:03:13.963Z,20.03
2022-07-29T02:05:45.930Z,19.92
2022-07-29T02:08:16.211Z,19.92
2022-07-29T02:10:51.343Z,19.90
2022-07-29T02:13:22.002Z,19.87
2022-07-29T02:16:00.074Z,19.80
2022-07-29T02:18:29.503Z,19.71
2022-07-29T02:20:59.654Z,19.70
2022-07-29T02:23:27.816Z,19.61
2022-07-29T02:26:01.959Z,19.59
2022-07-29T02:28:33.588Z,19.59
2022-07-29T02:31:03.654Z,19.51
2022-07-29T02:33:35.246Z,19.42
2022-07-29T02:36:04.498Z,19.33
2022-07-29T02:38:51.688Z,19.37
2022-07-29T02:41:24.696Z,19.37
2022-07-29T02:44:07.603Z,19.25
2022-07-29T02:46:47.846Z,19.18
2022-07-29T02:49:21.455Z,19.15
2022-07-29T02:51:58.719Z,19.22
2022-07-29T02:55:02.506Z,19.23
2022-07-29T02:57:54.603Z,19.13
2022-07-29T03:00:25.938Z,19.11
2022-07-29T03:02:58.648Z,19.11
2022-07-29T03:05:27.516Z,19.09
2022-07-29T03:07:59.951Z,19.07
2022-07-29T03:10:33.583Z,19.00
2022-07-29T03:13:06.262Z,19.03
2022-07-29T03:15:35.017Z,18.98
2022-07-29T03:18:04.205Z,19.03
2022-07-29T03:20:31.633Z,19.03
2022-07-29T03:23:04.548Z,19.03
2022-07-29T03:25:33.229Z,19.05
2022-07-29T03:28:00.303Z,19.00
2022-07-29T03:30:27.528Z,19.00
2022-07-29T03:32:59.774Z,19.03
2022-07-29T03:35:28.434Z,18.98
2022-07-29T03:37:59.801Z,18.89
2022-07-29T03:40:41.633Z,18.95
2022-07-29T03:43:11.020Z,18.92
2022-07-29T03:45:39.273Z,18.93
2022-07-29T03:48:14.218Z,18.90
2022-07-29T03:50:41.531Z,18.86
2022-07-29T03:53:11.837Z,18.78
2022-07-29T03:55:47.451Z,18.76
2022-07-29T03:58:17.206Z,18.77
2022-07-29T04:00:49.753Z,18.85
2022-07-29T04:03:23.286Z,18.88
2022-07-29T04:06:03.224Z,18.87
2022-07-29T04:08:30.244Z,18.99
2022-07-29T04:11:05.244Z,19.09
2022-07-29T04:13:36.634Z,19.12
2022-07-29T04:16:11.224Z,19.20
2022-07-29T04:18:43.621Z,19.44
2022-07-29T04:21:12.877Z,19.74
2022-07-29T04:23:56.240Z,20.10
2022-07-29T04:26:26.819Z,20.40
2022-07-29T04:28:54.137Z,20.64
2022-07-29T04:31:27.096Z,20.85
2022-07-29T04:33:56.255Z,21.04
2022-07-29T04:36:29.260Z,21.18
2022-07-29T04:39:08.064Z,21.27
2022-07-29T04:41:43.724Z,21.31
2022-07-29T04:44:14.843Z,21.34
2022-07-29T04:46:47.635Z,21.45
2022-07-29T04:49:17.335Z,21.62
2022-07-29T04:51:44.634Z,21.76
2022-07-29T04:54:15.527Z,21.92
2022-07-29T04:56:50.824Z,22.06
2022-07-29T04:59:50.304Z,22.22
2022-07-29T05:02:27.841Z,22.35
2022-07-29T05:05:02.872Z,22.46
2022-07-29T05:07:31.731Z,22.57
2022-07-29T05:09:58.778Z,22.68
2022-07-29T05:12:27.218Z,22.77
2022-07-29T05:15:02.410Z,22.90
2022-07-29T05:17:33.861Z,22.95
2022-07-29T05:20:11.010Z,22.97
2022-07-29T05:22:40.157Z,23.10
2022-07-29T05:25:18.632Z,23.11
2022-07-29T05:27:46.668Z,23.14
2022-07-29T05:30:27.400Z,23.14
2022-07-29T05:33:03.184Z,23.24
2022-07-29T05:35:30.406Z,23.21
2022-07-29T05:37:58.922Z,23.31
2022-07-29T05:40:34.531Z,23.42
2022-07-29T05:43:13.473Z,23.47
2022-07-29T05:46:17.079Z,23.59
2022-07-29T05:48:48.647Z,23.60
2022-07-29T05:51:15.626Z,23.64
2022-07-29T05:53:46.362Z,23.76
2022-07-29T05:56:25.640Z,23.84
2022-07-29T05:58:54.480Z,23.92
2022-07-29T06:01:21.532Z,23.95
2022-07-29T06:03:50.456Z,23.98
2022-07-29T06:06:19.555Z,24.08
2022-07-29T06:08:50.420Z,24.06
2022-07-29T06:11:17.810Z,24.20
2022-07-29T06:13:53.684Z,24.30
2022-07-29T06:16:35.080Z,24.37
2022-07-29T06:19:02.249Z,24.38
2022-07-29T06:21:34.649Z,24.41
2022-07-29T06:24:17.062Z,24.51
2022-07-29T06:26:52.699Z,24.54
2022-07-29T06:29:25.187Z,24.61
2022-07-29T06:31:59.334Z,24.63
2022-07-29T06:34:33.571Z,24.69
2022-07-29T06:37:15.561Z,24.67
2022-07-29T06:40:10.386Z,24.79
2022-07-29T06:42:43.937Z,24.82
2022-07-29T06:45:16.188Z,24.82
2022-07-29T06:48:29.440Z,24.91
2022-07-29T06:50:59.981Z,25.01
2022-07-29T06:53:28.105Z,24.99
2022-07-29T06:56:00.035Z,25.00
2022-07-29T06:58:33.067Z,25.04
2022-07-29T07:01:05.488Z,25.04
2022-07-29T07:03:33.435Z,25.14
2022-07-29T07:06:01.363Z,25.17
2022-07-29T07:08:30.093Z,25.16
2022-07-29T07:10:57.951Z,25.17
2022-07-29T07:13:38.946Z,25.27
2022-07-29T07:16:05.974Z,25.33
2022-07-29T07:18:32.984Z,25.32
2022-07-29T07:21:03.416Z,25.37
2022-07-29T07:23:30.275Z,25.43
2022-07-29T07:25:57.134Z,25.35
2022-07-29T07:28:26.343Z,25.36
2022-07-29T07:30:57.512Z,25.34
2022-07-29T07:33:31.069Z,25.37
2022-07-29T07:36:06.710Z,25.48
2022-07-29T07:38:52.023Z,25.42
2022-07-29T07:41:32.471Z,25.48
2022-07-29T07:44:16.119Z,25.53
2022-07-29T07:46:46.040Z,25.60
2022-07-29T07:49:23.433Z,25.66
2022-07-29T07:51:51.195Z,25.69
2022-07-29T07:54:20.778Z,25.69
2022-07-29T07:56:55.195Z,25.75
2022-07-29T07:59:23.025Z,25.74
2022-07-29T08:01:55.630Z,25.75
2022-07-29T08:04:28.165Z,25.71
2022-07-29T08:06:58.232Z,25.70
2022-07-29T08:09:29.926Z,25.80
2022-07-29T08:12:00.069Z,25.86
2022-07-29T08:14:33.210Z,25.85
2022-07-29T08:17:02.073Z,25.91
2022-07-29T08:19:32.772Z,25.99
2022-07-29T08:22:00.726Z,26.03
2022-07-29T08:24:44.520Z,26.14
2022-07-29T08:27:33.337Z,26.09
2022-07-29T08:30:00.164Z,26.17
2022-07-29T08:35:45.190Z,26.30
2022-07-29T08:38:15.752Z,26.36
2022-07-29T08:40:42.666Z,26.35
2022-07-29T08:43:15.978Z,26.38
2022-07-29T08:46:01.915Z,26.45
2022-07-29T08:48:32.196Z,26.47
2022-07-29T08:51:01.635Z,26.39
2022-07-29T08:53:32.030Z,26.31
2022-07-29T08:56:02.150Z,26.36
2022-07-29T08:58:37.030Z,26.43
2022-07-29T09:01:06.846Z,26.42
2022-07-29T09:03:38.157Z,26.49
2022-07-29T09:06:06.370Z,26.51
2022-07-29T09:08:34.685Z,26.63
2022-07-29T09:11:09.187Z,26.62
2022-07-29T09:13:37.296Z,26.71
2022-07-29T09:16:09.368Z,26.76
2022-07-29T09:18:46.457Z,26.80
2022-07-29T09:21:40.289Z,26.82
2022-07-29T09:24:21.263Z,26.76
2022-07-29T09:26:54.209Z,26.86
2022-07-29T09:29:27.631Z,26.87
2022-07-29T09:31:56.719Z,26.90
2022-07-29T09:34:33.206Z,26.92
2022-07-29T09:37:03.042Z,27.01
2022-07-29T09:39:38.209Z,27.07
2022-07-29T09:42:10.812Z,27.16
2022-07-29T09:44:52.689Z,27.09
2022-07-29T09:47:22.977Z,27.08
2022-07-29T09:49:55.535Z,27.16
2022-07-29T09:52:22.831Z,27.21
2022-07-29T09:54:55.479Z,27.17
2022-07-29T09:57:30.863Z,27.36
2022-07-29T10:00:20.022Z,27.39
2022-07-29T10:02:52.938Z,27.48
2022-07-29T10:05:36.110Z,27.57
2022-07-29T10:08:04.813Z,27.59
2022-07-29T10:10:37.629Z,27.66
2022-07-29T10:13:35.539Z,27.74
2022-07-29T10:16:03.752Z,27.79
2022-07-29T10:18:36.653Z,27.87
2022-07-29T10:21:07.759Z,27.97
2022-07-29T10:23:46.193Z,28.01
2022-07-29T10:26:14.175Z,28.08
2022-07-29T10:28:41.302Z,28.12
2022-07-29T10:31:24.193Z,28.23
2022-07-29T10:34:11.416Z,28.29
2022-07-29T10:37:25.877Z,28.37
2022-07-29T10:40:38.293Z,28.53
2022-07-29T10:43:31.905Z,28.49
2022-07-29T10:46:07.330Z,28.27
2022-07-29T10:49:15.449Z,28.06
2022-07-29T10:52:05.817Z,27.99
2022-07-29T10:54:44.335Z,27.94
2022-07-29T10:57:53.185Z,28.12
2022-07-29T11:00:35.874Z,28.36
2022-07-29T11:03:11.710Z,28.30
2022-07-29T11:05:59.888Z,28.36
2022-07-29T11:08:32.402Z,28.26
2022-07-29T11:11:22.584Z,28.29
2022-07-29T11:14:05.516Z,28.19
2022-07-29T11:17:06.490Z,28.45
2022-07-29T11:19:48.014Z,28.56
2022-07-29T11:22:45.946Z,28.89
2022-07-29T11:25:42.770Z,29.11
2022-07-29T11:28:22.905Z,29.32
2022-07-29T11:31:12.021Z,29.42
2022-07-29T11:33:56.386Z,29.64
2022-07-29T11:36:28.031Z,29.89
2022-07-29T11:39:36.848Z,29.73
2022-07-29T11:42:32.164Z,29.99
2022-07-29T11:45:43.923Z,30.18
2022-07-29T11:48:27.585Z,30.32
2022-07-29T11:50:48.604Z,30.50
2022-07-29T11:56:20.107Z,30.78
2022-07-29T11:59:08.660Z,30.96
2022-07-29T12:02:02.433Z,31.14
2022-07-29T12:04:59.239Z,31.10
2022-07-29T12:07:38.952Z,31.00
2022-07-29T12:10:19.752Z,30.97
2022-07-29T12:12:57.620Z,31.02
2022-07-29T12:15:45.996Z,31.00
2022-07-29T12:18:37.950Z,31.12
2022-07-29T12:21:12.487Z,31.08
2022-07-29T12:24:05.437Z,30.98
2022-07-29T12:26:35.975Z,30.85
2022-07-29T12:29:14.087Z,30.79
2022-07-29T12:31:45.844Z,30.64
2022-07-29T12:34:16.893Z,30.56
2022-07-29T12:36:54.568Z,30.46
2022-07-29T12:39:35.103Z,30.49
2022-07-29T12:42:18.619Z,30.54
2022-07-29T12:45:06.739Z,30.56
2022-07-29T12:47:54.630Z,30.44
2022-07-29T12:50:26.393Z,30.36
2022-07-29T12:52:53.501Z,30.26
2022-07-29T12:55:46.504Z,30.24
2022-07-29T12:58:30.830Z,30.32
2022-07-29T13:01:05.233Z,30.32
2022-07-29T13:04:06.746Z,30.29
2022-07-29T13:07:19.883Z,30.37
2022-07-29T13:10:52.555Z,30.38
2022-07-29T13:13:33.408Z,30.45
2022-07-29T13:16:23.020Z,30.35
2022-07-29T13:19:12.200Z,30.35
2022-07-29T13:21:40.363Z,30.37
2022-07-29T13:24:36.382Z,30.28
2022-07-29T13:27:18.864Z,30.31
2022-07-29T13:29:47.692Z,30.34
2022-07-29T13:32:41.997Z,30.38
2022-07-29T13:35:33.367Z,30.37
2022-07-29T13:38:14.744Z,30.34
2022-07-29T13:40:49.174Z,30.32
2022-07-29T13:43:44.076Z,30.36
2022-07-29T13:46:20.957Z,30.37
2022-07-29T13:48:54.789Z,30.43
2022-07-29T13:51:33.657Z,30.45
2022-07-29T13:54:07.679Z,30.44
2022-07-29T13:56:44.125Z,30.38
2022-07-29T13:59:26.907Z,30.36
2022-07-29T14:02:01.623Z,30.42
2022-07-29T14:04:33.165Z,30.48
2022-07-29T14:07:03.780Z,30.46
2022-07-29T14:09:56.872Z,30.49
2022-07-29T14:12:36.787Z,30.50
2022-07-29T14:15:10.651Z,30.55
2022-07-29T14:17:48.199Z,30.63
2022-07-29T14:20:21.380Z,30.67
2022-07-29T14:22:54.137Z,30.64
2022-07-29T14:25:27.680Z,30.62
2022-07-29T14:28:01.787Z,30.64
2022-07-29T14:30:44.726Z,30.63
2022-07-29T14:33:20.692Z,30.61
2022-07-29T14:35:52.548Z,30.60
2022-07-29T14:38:22.576Z,30.63
2022-07-29T14:40:54.609Z,30.63
2022-07-29T14:43:36.716Z,30.64
2022-07-29T14:46:12.404Z,30.62
2022-07-29T14:48:55.218Z,30.62
2022-07-29T14:51:32.434Z,30.60
2022-07-29T14:54:07.192Z,30.58
2022-07-29T14:56:37.854Z,30.59
2022-07-29T14:59:30.659Z,30.56
2022-07-29T15:02:03.643Z,30.59
2022-07-29T15:04:32.579Z,30.60
2022-07-29T15:07:15.119Z,30.70
2022-07-29T15:09:51.323Z,30.78
2022-07-29T15:12:26.031Z,30.77
2022-07-29T15:14:55.096Z,30.72
2022-07-29T15:17:24.619Z,30.82
2022-07-29T15:19:54.763Z,30.80
2022-07-29T15:22:37.995Z,30.79
2022-07-29T15:25:13.602Z,30.71
2022-07-29T15:27:48.916Z,30.72
2022-07-29T15:30:33.987Z,30.89
2022-07-29T15:33:06.553Z,30.87
2022-07-29T15:35:41.936Z,30.77
2022-07-29T15:38:11.045Z,30.71
2022-07-29T15:40:48.964Z,30.75
2022-07-29T15:43:28.811Z,31.27
2022-07-29T15:46:20.046Z,31.54
2022-07-29T15:49:00.482Z,31.31
2022-07-29T15:51:44.906Z,31.22
2022-07-29T15:54:15.661Z,30.85
2022-07-29T15:57:00.920Z,30.74
2022-07-29T15:59:37.322Z,30.70
2022-07-29T16:02:33.553Z,30.67
2022-07-29T16:05:09.506Z,30.64
2022-07-29T16:07:56.657Z,30.63
2022-07-29T16:10:39.587Z,30.61
2022-07-29T16:13:26.034Z,30.63
2022-07-29T16:16:02.036Z,30.63
2022-07-29T16:18:36.265Z,30.64
2022-07-29T16:21:32.117Z,30.70
2022-07-29T16:24:09.965Z,30.73
2022-07-29T16:26:41.403Z,30.80
2022-07-29T16:29:14.240Z,30.71
2022-07-29T16:31:45.751Z,30.63
2022-07-29T16:34:15.113Z,30.58
2022-07-29T16:37:15.399Z,30.56
2022-07-29T16:39:48.970Z,30.52
2022-07-29T16:42:37.087Z,30.41
2022-07-29T16:45:11.694Z,30.38
2022-07-29T16:47:43.351Z,30.32
2022-07-29T16:50:11.038Z,30.28
2022-07-29T16:52:53.028Z,30.25
2022-07-29T16:55:28.332Z,30.20
2022-07-29T16:57:58.908Z,30.16
2022-07-29T17:00:31.734Z,30.15
2022-07-29T17:03:04.681Z,30.11
2022-07-29T17:05:52.732Z,30.08
2022-07-29T17:08:27.971Z,30.04
2022-07-29T17:11:05.036Z,30.02
2022-07-29T17:13:34.907Z,29.99
2022-07-29T17:16:04.846Z,29.99
2022-07-29T17:18:59.199Z,29.97
2022-07-29T17:21:36.400Z,29.90
2022-07-29T17:24:16.941Z,29.86
2022-07-29T17:26:50.344Z,29.81
2022-07-29T17:29:20.745Z,29.74
2022-07-29T17:31:47.827Z,29.69
2022-07-29T17:34:18.926Z,29.65
2022-07-29T17:36:48.492Z,29.60
2022-07-29T17:39:17.847Z,29.54
2022-07-29T17:41:48.220Z,29.49
2022-07-29T17:44:15.518Z,29.37
2022-07-29T17:46:42.704Z,29.31
2022-07-29T17:49:10.883Z,29.19
2022-07-29T17:51:43.430Z,29.13
2022-07-29T17:54:10.945Z,29.09
2022-07-29T17:56:38.996Z,29.04
2022-07-29T17:59:09.183Z,28.94
2022-07-29T18:01:39.130Z,28.87
2022-07-29T18:04:06.205Z,28.82
2022-07-29T18:06:40.717Z,28.75
2022-07-29T18:09:08.182Z,28.68
2022-07-29T18:11:36.566Z,28.55
2022-07-29T18:14:11.256Z,28.51
2022-07-29T18:16:38.658Z,28.44
2022-07-29T18:19:08.825Z,28.39
2022-07-29T18:21:51.455Z,28.23
2022-07-29T18:24:30.293Z,28.08
2022-07-29T18:27:07.986Z,27.94
2022-07-29T18:29:36.181Z,27.79
2022-07-29T18:32:05.336Z,27.67
2022-07-29T18:34:34.026Z,27.50
2022-07-29T18:37:10.933Z,27.34
2022-07-29T18:39:40.477Z,27.12
2022-07-29T18:42:07.989Z,27.03
2022-07-29T18:44:43.576Z,26.93
2022-07-29T18:47:17.017Z,26.83
2022-07-29T18:49:44.370Z,26.81
2022-07-29T18:52:12.443Z,26.68
2022-07-29T18:54:48.089Z,26.52
2022-07-29T18:57:53.703Z,26.49
2022-07-29T19:00:15.258Z,26.45
2022-07-29T19:02:45.659Z,26.29
2022-07-29T19:05:18.397Z,26.06
2022-07-29T19:07:45.310Z,26.13
2022-07-29T19:10:12.626Z,26.04
2022-07-29T19:12:49.765Z,25.99
2022-07-29T19:15:19.976Z,25.91
2022-07-29T19:17:46.954Z,25.76
2022-07-29T19:20:14.470Z,25.78
2022-07-29T19:22:51.207Z,25.84
2022-07-29T19:25:19.628Z,25.71
2022-07-29T19:27:47.317Z,25.76
2022-07-29T19:30:23.161Z,25.79
2022-07-29T19:32:51.997Z,25.92
2022-07-29T19:35:25.687Z,25.92
2022-07-29T19:37:57.387Z,25.96
2022-07-29T19:40:30.823Z,26.06
2022-07-29T19:43:00.155Z,25.89
2022-07-29T19:45:31.470Z,25.91
2022-07-29T19:48:01.666Z,25.81
2022-07-29T19:50:36.499Z,25.74
2022-07-29T19:53:05.289Z,25.68
2022-07-29T19:55:32.230Z,25.80
2022-07-29T19:58:06.136Z,25.78
2022-07-29T20:00:38.544Z,25.75
2022-07-29T20:03:12.143Z,25.79
2022-07-29T20:05:51.862Z,25.86
2022-07-29T20:08:24.467Z,25.86
2022-07-29T20:10:57.718Z,26.00
2022-07-29T20:13:27.009Z,26.08
2022-07-29T20:15:53.991Z,26.13
2022-07-29T20:18:30.461Z,26.19
2022-07-29T20:20:57.713Z,26.16
2022-07-29T20:23:33.446Z,26.27
2022-07-29T20:26:19.483Z,26.25
2022-07-29T20:28:54.160Z,26.30
2022-07-29T20:31:30.003Z,26.33
2022-07-29T20:33:59.114Z,26.37
2022-07-29T20:36:28.814Z,26.32
2022-07-29T20:39:06.673Z,26.35
2022-07-29T20:41:34.033Z,26.17
2022-07-29T20:44:04.818Z,26.17
2022-07-29T20:46:32.104Z,26.20
2022-07-29T20:49:10.137Z,26.28
2022-07-29T20:51:49.266Z,26.25
2022-07-29T20:54:23.618Z,26.15
2022-07-29T20:56:57.009Z,26.23
2022-07-29T20:59:32.324Z,26.08
2022-07-29T21:02:07.021Z,26.16
2022-07-29T21:04:53.333Z,26.26
2022-07-29T21:07:42.471Z,26.28
2022-07-29T21:10:41.408Z,26.18
2022-07-29T21:13:11.558Z,26.20
2022-07-29T21:15:54.724Z,26.16
2022-07-29T21:18:51.898Z,26.23
2022-07-29T21:24:28.419Z,26.08
2022-07-29T21:27:23.067Z,25.91
2022-07-29T21:29:53.564Z,25.84
2022-07-29T21:32:29.949Z,25.78
2022-07-29T21:34:59.742Z,25.67
2022-07-29T21:37:56.646Z,25.65
2022-07-29T21:40:39.840Z,25.45
2022-07-29T21:43:34.188Z,25.38
2022-07-29T21:46:18.459Z,25.25
2022-07-29T21:48:53.306Z,25.19
2022-07-29T21:51:30.354Z,24.92
2022-07-29T21:54:15.742Z,24.88
2022-07-29T21:57:09.405Z,24.74
2022-07-29T21:59:36.263Z,24.69
2022-07-29T22:02:03.497Z,24.56
2022-07-29T22:04:30.951Z,24.23
2022-07-29T22:06:58.518Z,24.31
2022-07-29T22:09:25.728Z,24.26
2022-07-29T22:11:52.500Z,24.31
2022-07-29T22:14:19.393Z,24.24
2022-07-29T22:16:46.786Z,24.23
2022-07-29T22:19:14.176Z,24.26
2022-07-29T22:21:41.792Z,24.32
2022-07-29T22:24:10.319Z,24.22
2022-07-29T22:26:38.163Z,23.92
2022-07-29T22:29:05.058Z,23.96
2022-07-29T22:31:31.819Z,24.11
2022-07-29T22:33:58.567Z,24.16
2022-07-29T22:36:26.257Z,24.09
2022-07-29T22:38:52.922Z,24.10
2022-07-29T22:41:19.699Z,24.17
2022-07-29T22:43:46.391Z,24.25
2022-07-29T22:46:13.138Z,24.28
2022-07-29T22:48:39.925Z,24.41
2022-07-29T22:51:06.778Z,24.52
2022-07-29T22:53:33.460Z,24.64
2022-07-29T22:56:00.239Z,24.70
2022-07-29T22:58:26.925Z,24.79
2022-07-29T23:00:53.913Z,24.87
2022-07-29T23:03:21.261Z,24.94
2022-07-29T23:05:48.168Z,24.98
2022-07-29T23:08:14.983Z,25.00
2022-07-29T23:10:41.722Z,25.05
2022-07-29T23:13:08.640Z,24.97
2022-07-29T23:15:35.285Z,24.93
2022-07-29T23:18:02.063Z,24.89
2022-07-29T23:20:28.900Z,24.90
2022-07-29T23:22:55.616Z,24.83
2022-07-29T23:25:22.447Z,24.87
2022-07-29T23:27:49.114Z,24.81
2022-07-29T23:30:15.843Z,24.83
2022-07-29T23:32:42.504Z,24.89
2022-07-29T23:35:09.608Z,24.71
2022-07-29T23:37:36.638Z,24.50
2022-07-29T23:40:04.707Z,24.29
2022-07-29T23:42:31.551Z,24.49
2022-07-29T23:44:58.283Z,24.25
2022-07-29T23:47:24.965Z,24.02
2022-07-29T23:49:51.718Z,23.92
2022-07-29T23:52:18.644Z,23.82
2022-07-29T23:54:45.407Z,23.84
2022-07-29T23:57:12.293Z,23.80
2022-07-29T23:59:38.968Z,23.78
